Time;durP1;ratioP1;P1;durP2;ratioP2;P2;SDS_P1;SDS_P2;PMS_P1;PMS_P2;Temp;Humidity;BMP_temperature;BMP_pressure;BME280_temperature;BME280_humidity;BME280_pressure;Samples;Min_cycle;Max_cycle;Signal;HPM_P1;HPM_P2
2022/11/23 00:01:38;;;;;;;1.83;0.70;;;9.20;88.90;;;;;;4883202;29;20571;-73
2022/11/23 00:04:08;;;;;;;1.40;1.00;;;9.20;89.00;;;;;;4873334;29;20526;-72
2022/11/23 00:06:37;;;;;;;0.70;0.60;;;9.20;89.00;;;;;;4872330;29;20256;-74
2022/11/23 00:09:06;;;;;;;0.60;0.50;;;9.20;88.90;;;;;;4864994;29;20234;-74
2022/11/23 00:11:35;;;;;;;1.00;0.60;;;9.20;88.80;;;;;;4871492;29;20286;-74
2022/11/23 00:14:05;;;;;;;0.82;0.60;;;9.20;88.70;;;;;;4869573;29;20498;-74
2022/11/23 00:16:34;;;;;;;1.27;0.50;;;9.20;88.70;;;;;;4869089;29;20612;-73
2022/11/23 00:19:03;;;;;;;1.63;0.87;;;9.20;89.30;;;;;;4874281;29;20919;-74
2022/11/23 00:21:32;;;;;;;2.35;2.05;;;9.20;89.10;;;;;;4871086;29;20468;-73
2022/11/23 00:24:01;;;;;;;1.77;0.80;;;9.20;89.10;;;;;;4875989;29;20300;-73
2022/11/23 00:26:30;;;;;;;1.43;0.50;;;9.20;89.30;;;;;;4876895;29;20232;-74
2022/11/23 00:28:58;;;;;;;0.77;0.60;;;9.20;89.00;;;;;;4870004;29;20987;-73
2022/11/23 00:31:28;;;;;;;0.80;0.60;;;9.20;89.00;;;;;;4875999;29;21082;-74
2022/11/23 00:33:58;;;;;;;0.90;0.73;;;9.20;89.10;;;;;;4880997;29;20436;-75
2022/11/23 00:36:28;;;;;;;3.40;0.97;;;9.20;88.90;;;;;;4874550;29;20899;-74
2022/11/23 00:38:59;;;;;;;2.43;0.83;;;9.20;88.90;;;;;;4863696;29;20859;-74
2022/11/23 00:41:28;;;;;;;0.80;0.65;;;9.20;88.90;;;;;;4888576;29;20821;-74
2022/11/23 00:43:57;;;;;;;1.10;1.00;;;9.20;88.90;;;;;;4872668;29;20191;-73
2022/11/23 00:46:28;;;;;;;1.43;1.03;;;9.20;88.90;;;;;;4887820;29;20976;-74
2022/11/23 00:48:57;;;;;;;1.70;0.80;;;9.20;89.00;;;;;;4864876;29;20482;-74
2022/11/23 00:51:27;;;;;;;1.30;0.90;;;9.20;89.10;;;;;;4872436;29;20475;-74
2022/11/23 00:53:56;;;;;;;1.23;0.60;;;9.20;89.00;;;;;;4868044;29;20451;-73
2022/11/23 00:56:25;;;;;;;1.70;0.70;;;9.20;88.90;;;;;;4879625;29;20920;-73
2022/11/23 00:58:56;;;;;;;2.27;0.40;;;9.20;89.00;;;;;;4870216;29;20447;-74
2022/11/23 01:01:26;;;;;;;0.60;0.40;;;9.20;89.40;;;;;;4876167;29;21067;-74
2022/11/23 01:03:58;;;;;;;4.33;0.77;;;9.20;88.90;;;;;;4881027;29;20436;-74
2022/11/23 01:06:31;;;;;;;1.27;0.80;;;9.20;89.20;;;;;;4871299;29;21139;-73
2022/11/23 01:09:02;;;;;;;0.73;0.60;;;9.20;89.20;;;;;;4865131;29;20266;-72
2022/11/23 01:11:32;;;;;;;1.40;0.90;;;9.20;89.00;;;;;;4871983;29;20853;-72
2022/11/23 01:14:01;;;;;;;1.60;0.60;;;9.20;89.50;;;;;;4870567;29;20586;-75
2022/11/23 01:16:32;;;;;;;0.85;0.40;;;9.20;89.50;;;;;;4879540;29;20603;-73
2022/11/23 01:19:03;;;;;;;1.00;0.70;;;9.20;89.20;;;;;;4857460;29;20676;-73
2022/11/23 01:21:33;;;;;;;1.77;0.63;;;9.20;89.60;;;;;;4868729;29;20548;-74
2022/11/23 01:24:05;;;;;;;1.33;0.50;;;9.20;89.40;;;;;;4865130;29;20435;-73
2022/11/23 01:26:34;;;;;;;2.03;0.77;;;9.20;89.60;;;;;;4871410;29;20867;-73
2022/11/23 01:29:02;;;;;;;0.83;0.60;;;9.20;89.70;;;;;;4873145;29;20515;-74
2022/11/23 01:31:30;;;;;;;2.77;0.60;;;9.20;89.30;;;;;;4871947;29;20897;-74
2022/11/23 01:34:02;;;;;;;1.10;0.57;;;9.20;89.40;;;;;;4853961;29;20436;-74
2022/11/23 01:36:32;;;;;;;2.97;0.80;;;9.20;89.20;;;;;;4868197;29;20482;-73
2022/11/23 01:39:02;;;;;;;0.83;0.70;;;9.20;89.10;;;;;;4872084;29;21191;-73
2022/11/23 01:41:33;;;;;;;1.90;0.93;;;9.20;89.00;;;;;;4871874;29;20459;-74
2022/11/23 01:44:01;;;;;;;3.30;0.90;;;9.20;89.20;;;;;;4863697;29;20451;-73
2022/11/23 01:46:31;;;;;;;2.63;0.83;;;9.20;88.90;;;;;;4876069;29;20486;-73
2022/11/23 01:49:05;;;;;;;0.83;0.70;;;9.20;89.10;;;;;;4864380;29;20455;-73
2022/11/23 01:51:37;;;;;;;1.27;0.67;;;9.20;88.90;;;;;;4871298;29;20474;-74
2022/11/23 01:54:09;;;;;;;1.13;0.57;;;9.20;89.00;;;;;;4874413;29;20455;-74
2022/11/23 01:56:42;;;;;;;0.73;0.50;;;9.20;88.90;;;;;;4870923;29;20286;-73
2022/11/23 01:59:14;;;;;;;0.70;0.60;;;9.20;88.90;;;;;;4865146;29;20193;-73
2022/11/23 02:01:43;;;;;;;4.63;0.70;;;9.20;88.80;;;;;;4894047;29;20233;-74
2022/11/23 02:04:19;;;;;;;1.93;0.90;;;9.20;89.60;;;;;;4879814;29;20448;-73
2022/11/23 02:06:48;;;;;;;1.23;0.60;;;9.20;89.20;;;;;;4870478;29;20491;-72
2022/11/23 02:09:17;;;;;;;0.70;0.50;;;9.20;89.50;;;;;;4872941;29;20216;-72
2022/11/23 02:11:46;;;;;;;1.60;0.98;;;9.20;89.10;;;;;;4870347;29;20723;-73
2022/11/23 02:14:15;;;;;;;2.17;0.80;;;9.20;88.80;;;;;;4871764;29;20202;-73
2022/11/23 02:16:50;;;;;;;0.70;0.50;;;9.20;88.60;;;;;;4870242;29;20590;-75
2022/11/23 02:19:31;;;;;;;0.80;0.80;;;9.20;88.90;;;;;;4848576;29;20478;-73
2022/11/23 02:22:26;;;;;;;0.80;0.60;;;9.20;88.80;;;;;;4866485;29;20303;-73
2022/11/23 02:25:32;;;;;;;1.95;0.50;;;9.20;88.90;;;;;;4867525;29;20286;-75
2022/11/23 02:28:02;;;;;;;0.70;0.50;;;9.20;88.90;;;;;;4879321;29;20285;-75
2022/11/23 02:30:32;;;;;;;2.53;0.77;;;9.20;89.00;;;;;;4870763;29;20617;-75
2022/11/23 02:33:03;;;;;;;1.00;0.40;;;9.20;89.30;;;;;;4864329;29;20975;-71
2022/11/23 02:35:32;;;;;;;4.10;0.70;;;9.20;89.00;;;;;;4874989;29;20562;-75
2022/11/23 02:38:02;;;;;;;1.40;0.70;;;9.20;89.00;;;;;;4860128;29;20274;-75
2022/11/23 02:40:33;;;;;;;1.17;0.93;;;9.20;88.60;;;;;;4872281;29;20530;-75
2022/11/23 02:43:03;;;;;;;1.20;0.50;;;9.20;88.90;;;;;;4871471;29;20205;-75
2022/11/23 02:45:36;;;;;;;3.22;1.02;;;9.30;88.50;;;;;;4872775;29;20538;-73
2022/11/23 02:48:05;;;;;;;2.20;0.70;;;9.20;88.90;;;;;;4855877;29;20210;-73
2022/11/23 02:50:33;;;;;;;1.00;0.60;;;9.20;88.90;;;;;;4875142;29;20477;-74
2022/11/23 02:53:02;;;;;;;1.00;0.50;;;9.20;89.10;;;;;;4875549;29;20851;-74
2022/11/23 02:55:32;;;;;;;1.33;0.60;;;9.20;88.90;;;;;;4875188;29;20592;-73
2022/11/23 02:58:03;;;;;;;1.73;0.80;;;9.20;88.80;;;;;;4867978;29;20561;-74
2022/11/23 03:00:32;;;;;;;0.73;0.50;;;9.20;88.60;;;;;;4867548;29;20474;-74
2022/11/23 03:03:02;;;;;;;2.80;0.60;;;9.20;88.90;;;;;;4869705;29;20994;-74
2022/11/23 03:05:31;;;;;;;1.33;0.50;;;9.20;88.60;;;;;;4876852;29;20248;-74
2022/11/23 03:08:05;;;;;;;1.10;0.60;;;9.20;88.50;;;;;;4880440;29;20642;-73
2022/11/23 03:10:34;;;;;;;2.00;0.80;;;9.20;88.60;;;;;;4884017;29;20262;-74
2022/11/23 03:13:03;;;;;;;2.50;0.70;;;9.20;88.60;;;;;;4878338;29;20959;-74
2022/11/23 03:15:35;;;;;;;1.47;0.77;;;9.20;88.40;;;;;;4890382;29;20487;-74
2022/11/23 03:18:05;;;;;;;0.90;0.60;;;9.20;88.40;;;;;;4876520;29;20478;-74
2022/11/23 03:20:35;;;;;;;1.00;0.60;;;9.20;88.70;;;;;;4876893;29;20985;-73
2022/11/23 03:23:04;;;;;;;3.10;1.00;;;9.20;88.20;;;;;;4867318;29;20443;-73
2022/11/23 03:25:33;;;;;;;1.90;0.77;;;9.20;88.30;;;;;;4891487;29;20478;-74
2022/11/23 03:28:05;;;;;;;1.80;0.80;;;9.20;88.40;;;;;;4876700;29;20806;-73
2022/11/23 03:30:34;;;;;;;1.65;0.60;;;9.20;88.60;;;;;;4879453;29;20470;-72
2022/11/23 03:33:05;;;;;;;2.40;0.60;;;9.20;88.30;;;;;;4876363;29;20285;-73
2022/11/23 03:35:33;;;;;;;2.70;0.90;;;9.20;88.30;;;;;;4875293;29;21019;-72
2022/11/23 03:38:16;;;;;;;1.33;0.60;;;9.20;88.40;;;;;;4875071;29;20466;-74
2022/11/23 03:40:45;;;;;;;1.30;0.63;;;9.20;88.40;;;;;;4875520;29;20461;-74
2022/11/23 03:43:24;;;;;;;2.47;0.80;;;9.20;88.50;;;;;;4874992;29;20230;-74
2022/11/23 03:45:52;;;;;;;3.10;0.93;;;9.20;88.40;;;;;;4874549;29;20471;-74
2022/11/23 03:48:21;;;;;;;2.50;0.90;;;9.20;88.80;;;;;;4862114;29;20529;-74
2022/11/23 03:50:49;;;;;;;1.42;0.68;;;9.30;88.80;;;;;;4875773;29;20890;-72
2022/11/23 03:53:18;;;;;;;1.60;1.10;;;9.20;88.60;;;;;;4872214;29;20576;-74
2022/11/23 03:55:46;;;;;;;2.10;1.20;;;9.20;88.70;;;;;;4874810;29;20610;-73
2022/11/23 03:58:15;;;;;;;2.80;1.43;;;9.20;88.60;;;;;;4874677;29;21139;-74
2022/11/23 04:00:45;;;;;;;1.87;0.70;;;9.20;88.80;;;;;;4886563;29;20879;-74
2022/11/23 04:03:15;;;;;;;1.15;0.60;;;9.20;88.60;;;;;;4875814;29;20443;-73
2022/11/23 04:06:10;;;;;;;2.87;0.70;;;9.30;89.10;;;;;;4873546;29;20584;-74
2022/11/23 04:08:57;;;;;;;1.70;0.90;;;9.20;88.70;;;;;;4879079;29;20533;-73
2022/11/23 04:11:40;;;;;;;1.33;0.83;;;9.20;88.90;;;;;;4875990;29;20710;-73
2022/11/23 04:14:09;;;;;;;2.35;0.95;;;9.20;89.00;;;;;;4877824;29;20558;-74
2022/11/23 04:16:39;;;;;;;3.53;0.63;;;9.20;89.30;;;;;;4888039;29;20232;-74
2022/11/23 04:19:07;;;;;;;0.93;0.60;;;9.30;89.40;;;;;;4876848;29;20206;-74
2022/11/23 04:21:37;;;;;;;4.37;0.90;;;9.20;88.90;;;;;;4873459;29;20234;-73
2022/11/23 04:24:06;;;;;;;3.63;1.10;;;9.20;89.00;;;;;;4873169;29;20451;-74
2022/11/23 04:26:36;;;;;;;0.90;0.60;;;9.20;89.20;;;;;;4872484;29;20532;-74
2022/11/23 04:29:05;;;;;;;2.47;0.93;;;9.20;88.50;;;;;;4872789;29;20914;-75
2022/11/23 04:31:35;;;;;;;1.93;1.07;;;9.20;88.30;;;;;;4889264;29;20236;-73
2022/11/23 04:34:11;;;;;;;0.83;0.50;;;9.30;88.40;;;;;;4900086;29;20456;-73
2022/11/23 04:36:40;;;;;;;0.82;0.60;;;9.20;89.20;;;;;;4879883;29;20660;-74
2022/11/23 04:39:11;;;;;;;0.98;0.68;;;9.20;89.50;;;;;;4874609;29;20237;-74
2022/11/23 04:41:57;;;;;;;0.80;0.50;;;9.20;89.00;;;;;;4878945;29;20233;-74
2022/11/23 04:44:25;;;;;;;2.97;0.80;;;9.20;89.30;;;;;;4871485;29;20246;-74
2022/11/23 04:47:00;;;;;;;1.10;0.77;;;9.30;89.70;;;;;;4868720;29;20476;-73
2022/11/23 04:49:30;;;;;;;1.20;1.00;;;9.20;88.90;;;;;;4872859;29;20935;-74
2022/11/23 04:51:59;;;;;;;5.05;0.65;;;9.20;89.40;;;;;;4857948;29;20820;-74
2022/11/23 04:54:34;;;;;;;1.77;0.70;;;9.30;89.30;;;;;;4865208;29;20234;-74
2022/11/23 04:57:07;;;;;;;2.20;0.67;;;9.20;89.30;;;;;;4871792;29;21101;-73
2022/11/23 04:59:36;;;;;;;1.27;0.93;;;9.20;89.00;;;;;;4870977;29;20450;-73
2022/11/23 05:02:05;;;;;;;1.33;0.70;;;9.30;89.40;;;;;;4862999;29;21097;-67
2022/11/23 05:04:38;;;;;;;1.30;0.50;;;9.30;89.20;;;;;;4878892;29;20217;-70
2022/11/23 05:07:07;;;;;;;1.73;0.88;;;9.20;90.00;;;;;;4862568;29;20254;-70
2022/11/23 05:09:37;;;;;;;1.20;0.60;;;9.30;89.20;;;;;;4869431;29;20217;-69
2022/11/23 05:12:21;;;;;;;1.07;0.50;;;9.30;88.90;;;;;;4871291;29;20671;-69
2022/11/23 05:14:50;;;;;;;1.52;0.85;;;9.20;88.60;;;;;;4870870;29;20447;-68
2022/11/23 05:17:24;;;;;;;1.92;0.70;;;9.30;88.90;;;;;;4867266;29;20217;-70
2022/11/23 05:19:56;;;;;;;1.37;0.80;;;9.30;89.10;;;;;;4872005;29;20680;-70
2022/11/23 05:22:25;;;;;;;2.20;1.03;;;9.20;88.90;;;;;;4871014;29;20461;-67
2022/11/23 05:24:54;;;;;;;1.50;0.83;;;9.20;88.70;;;;;;4887116;29;20445;-70
2022/11/23 05:27:25;;;;;;;2.22;0.75;;;9.30;88.80;;;;;;4871358;29;20744;-67
2022/11/23 05:29:53;;;;;;;0.95;0.60;;;9.20;88.90;;;;;;4869073;29;20267;-71
2022/11/23 05:32:22;;;;;;;0.90;0.60;;;9.20;88.50;;;;;;4871919;29;20235;-71
2022/11/23 05:34:51;;;;;;;1.38;0.88;;;9.20;88.70;;;;;;4864021;29;20944;-69
2022/11/23 05:37:21;;;;;;;1.95;1.23;;;9.30;89.10;;;;;;4865705;29;20647;-69
2022/11/23 05:39:58;;;;;;;1.75;1.25;;;9.30;88.90;;;;;;4871809;29;20226;-70
2022/11/23 05:42:27;;;;;;;1.58;0.65;;;9.20;88.80;;;;;;4868363;29;20381;-70
2022/11/23 05:45:00;;;;;;;2.77;1.23;;;9.30;88.80;;;;;;4870181;29;20694;-74
2022/11/23 05:47:37;;;;;;;2.90;0.98;;;9.30;88.90;;;;;;4871338;29;20978;-69
2022/11/23 05:50:10;;;;;;;2.47;1.57;;;9.30;88.80;;;;;;4871419;29;20198;-69
2022/11/23 05:52:44;;;;;;;2.80;0.80;;;9.20;88.50;;;;;;4870989;29;20455;-69
2022/11/23 05:55:12;;;;;;;2.70;1.13;;;9.20;88.50;;;;;;4871289;29;20459;-69
2022/11/23 05:57:42;;;;;;;2.37;0.80;;;9.30;88.60;;;;;;4870487;29;20458;-70
2022/11/23 06:00:12;;;;;;;4.73;1.30;;;9.30;88.50;;;;;;4868627;29;20507;-69
2022/11/23 06:02:49;;;;;;;3.60;1.20;;;9.20;88.40;;;;;;4870684;29;20455;-69
2022/11/23 06:05:18;;;;;;;2.83;1.10;;;9.30;88.60;;;;;;4870306;29;20558;-69
2022/11/23 06:07:54;;;;;;;2.70;1.20;;;9.20;88.40;;;;;;4868743;29;21015;-71
2022/11/23 06:10:26;;;;;;;3.78;1.35;;;9.20;88.40;;;;;;4883286;29;20502;-69
2022/11/23 06:13:02;;;;;;;4.10;1.40;;;9.20;88.40;;;;;;4889020;29;20698;-70
2022/11/23 06:15:32;;;;;;;2.77;0.80;;;9.20;88.30;;;;;;4872216;29;20230;-69
2022/11/23 06:18:03;;;;;;;3.10;1.07;;;9.30;88.40;;;;;;4864715;29;20468;-69
2022/11/23 06:20:40;;;;;;;1.30;1.00;;;9.30;88.40;;;;;;4870805;29;20450;-67
2022/11/23 06:23:10;;;;;;;2.70;1.00;;;9.20;88.20;;;;;;4870827;29;20255;-69
2022/11/23 06:25:38;;;;;;;2.63;0.93;;;9.30;88.30;;;;;;4876457;29;20898;-72
2022/11/23 06:28:17;;;;;;;2.53;1.50;;;9.20;88.20;;;;;;4881322;29;20447;-72
2022/11/23 06:30:48;;;;;;;1.70;0.80;;;9.20;88.20;;;;;;4869241;29;20719;-73
2022/11/23 06:33:17;;;;;;;3.70;0.83;;;9.20;88.00;;;;;;4871493;29;20450;-74
2022/11/23 06:35:55;;;;;;;1.30;0.80;;;9.20;88.00;;;;;;4867641;29;20566;-72
2022/11/23 06:38:28;;;;;;;3.07;1.23;;;9.30;88.00;;;;;;4869778;29;20558;-74
2022/11/23 06:41:04;;;;;;;2.17;0.87;;;9.30;87.90;;;;;;4863403;29;20494;-73
2022/11/23 06:43:32;;;;;;;2.00;0.80;;;9.30;87.90;;;;;;4884267;29;20451;-74
2022/11/23 06:46:05;;;;;;;4.93;1.27;;;9.30;87.80;;;;;;4870647;29;20549;-74
2022/11/23 06:48:35;;;;;;;1.73;0.95;;;9.20;87.70;;;;;;4872580;29;20551;-72
2022/11/23 06:51:05;;;;;;;2.13;0.90;;;9.20;87.60;;;;;;4866074;29;20230;-73
2022/11/23 06:53:37;;;;;;;2.67;0.90;;;9.20;87.50;;;;;;4862271;29;20454;-73
2022/11/23 06:56:09;;;;;;;4.10;1.20;;;9.20;87.60;;;;;;4865966;29;20555;-73
2022/11/23 06:58:37;;;;;;;2.40;1.30;;;9.20;87.50;;;;;;4868434;29;20474;-68
2022/11/23 07:01:11;;;;;;;2.57;0.90;;;9.20;87.50;;;;;;4870455;29;20226;-68
2022/11/23 07:03:50;;;;;;;1.90;0.80;;;9.20;87.40;;;;;;4871145;29;20975;-68
2022/11/23 07:06:25;;;;;;;2.30;0.97;;;9.20;87.30;;;;;;4875124;29;20859;-69
2022/11/23 07:08:59;;;;;;;1.40;0.73;;;9.20;87.30;;;;;;4867836;29;20508;-68
2022/11/23 07:11:38;;;;;;;1.00;0.70;;;9.20;87.40;;;;;;4859237;29;21003;-68
2022/11/23 07:14:07;;;;;;;2.30;1.20;;;9.20;87.20;;;;;;4874143;29;20551;-70
2022/11/23 07:16:38;;;;;;;4.30;1.00;;;9.20;87.20;;;;;;4869158;29;20509;-69
2022/11/23 07:19:06;;;;;;;1.35;0.80;;;9.20;87.10;;;;;;4885253;29;20467;-69
2022/11/23 07:21:35;;;;;;;2.00;0.60;;;9.20;87.10;;;;;;4868501;29;20608;-68
2022/11/23 07:24:05;;;;;;;1.63;0.65;;;9.20;87.10;;;;;;4876991;29;20478;-67
2022/11/23 07:26:35;;;;;;;1.37;0.70;;;9.20;87.00;;;;;;4888320;29;20274;-68
2022/11/23 07:29:04;;;;;;;4.00;0.95;;;9.20;86.80;;;;;;4862980;29;20463;-68
2022/11/23 07:31:33;;;;;;;3.53;1.20;;;9.20;86.90;;;;;;4873884;29;20231;-69
2022/11/23 07:34:02;;;;;;;3.23;0.80;;;9.20;86.80;;;;;;4874306;29;20511;-68
2022/11/23 07:36:31;;;;;;;6.10;1.23;;;9.20;86.70;;;;;;4873392;29;20541;-69
2022/11/23 07:38:59;;;;;;;1.92;0.93;;;9.20;86.70;;;;;;4877509;29;20474;-72
2022/11/23 07:41:29;;;;;;;3.45;1.00;;;9.20;86.80;;;;;;4866495;29;20322;-72
2022/11/23 07:44:21;;;;;;;4.60;1.40;;;9.20;86.80;;;;;;4868375;29;20639;-72
2022/11/23 07:46:53;;;;;;;1.93;1.00;;;9.20;86.60;;;;;;4872307;29;20904;-74
2022/11/23 07:49:22;;;;;;;3.83;1.10;;;9.20;86.60;;;;;;4874266;29;20794;-73
2022/11/23 07:51:52;;;;;;;4.73;0.50;;;9.20;86.60;;;;;;4872761;29;20582;-74
2022/11/23 07:54:20;;;;;;;5.70;0.90;;;9.20;86.50;;;;;;4867528;29;20464;-73
2022/11/23 07:56:53;;;;;;;2.40;0.80;;;9.20;86.50;;;;;;4875190;29;20831;-74
2022/11/23 07:59:21;;;;;;;1.60;1.00;;;9.20;86.40;;;;;;4871567;29;20562;-73
2022/11/23 08:01:50;;;;;;;1.43;0.93;;;9.20;86.40;;;;;;4871926;29;20498;-72
2022/11/23 08:04:26;;;;;;;1.50;1.00;;;9.20;86.40;;;;;;4867965;29;20440;-75
2022/11/23 08:06:55;;;;;;;1.80;0.60;;;9.20;86.40;;;;;;4870092;29;20479;-73
2022/11/23 08:09:24;;;;;;;4.15;2.05;;;9.20;86.40;;;;;;4876048;29;20656;-72
2022/11/23 08:11:54;;;;;;;2.77;1.23;;;9.20;86.50;;;;;;4869169;29;20226;-72
2022/11/23 08:14:22;;;;;;;2.73;1.27;;;9.20;86.60;;;;;;4870897;29;20461;-73
2022/11/23 08:16:52;;;;;;;2.00;0.83;;;9.20;86.50;;;;;;4872174;29;20478;-74
2022/11/23 08:19:21;;;;;;;2.20;0.80;;;9.20;86.50;;;;;;4873384;29;20481;-73
2022/11/23 08:21:49;;;;;;;5.33;1.10;;;9.20;86.50;;;;;;4867065;29;21383;-73
2022/11/23 08:24:18;;;;;;;4.03;0.88;;;9.20;86.60;;;;;;4884373;29;20440;-75
2022/11/23 08:26:47;;;;;;;2.03;0.90;;;9.20;86.60;;;;;;4872885;29;20241;-74
2022/11/23 08:29:17;;;;;;;3.13;0.93;;;9.20;86.50;;;;;;4868206;29;20464;-74
2022/11/23 08:31:46;;;;;;;1.35;0.80;;;9.20;86.60;;;;;;4866815;29;20318;-73
2022/11/23 08:34:14;;;;;;;1.57;1.00;;;9.30;86.80;;;;;;4873689;29;20211;-75
2022/11/23 08:36:43;;;;;;;2.07;0.60;;;9.30;86.70;;;;;;4871613;29;20498;-74
2022/11/23 08:39:13;;;;;;;2.77;1.10;;;9.30;86.60;;;;;;4872982;29;20516;-73
2022/11/23 08:41:42;;;;;;;1.57;0.70;;;9.30;86.50;;;;;;4870896;29;20474;-73
2022/11/23 08:44:11;;;;;;;1.23;0.50;;;9.30;86.50;;;;;;4873652;29;20470;-73
2022/11/23 08:46:41;;;;;;;2.10;0.73;;;9.30;86.40;;;;;;4872651;29;20479;-74
2022/11/23 08:49:10;;;;;;;1.27;0.70;;;9.30;86.40;;;;;;4871992;29;20530;-72
2022/11/23 08:51:39;;;;;;;4.03;0.80;;;9.30;86.40;;;;;;4857221;29;20476;-73
2022/11/23 08:54:14;;;;;;;3.23;0.87;;;9.30;86.00;;;;;;4872628;29;20449;-72
2022/11/23 08:56:43;;;;;;;1.53;0.80;;;9.40;86.00;;;;;;4871910;29;20539;-74
2022/11/23 08:59:12;;;;;;;1.40;0.77;;;9.40;85.90;;;;;;4865647;29;20948;-72
2022/11/23 09:01:43;;;;;;;3.53;1.13;;;9.40;85.70;;;;;;4878100;29;20966;-74
2022/11/23 09:04:12;;;;;;;1.20;0.80;;;9.40;85.70;;;;;;4873266;29;20455;-74
2022/11/23 09:06:48;;;;;;;1.63;0.80;;;9.40;85.50;;;;;;4869153;29;20490;-73
2022/11/23 09:09:16;;;;;;;1.63;0.90;;;9.40;85.30;;;;;;4870469;29;20435;-72
2022/11/23 09:11:45;;;;;;;2.40;0.80;;;9.40;85.20;;;;;;4873491;29;20531;-71
2022/11/23 09:14:13;;;;;;;2.00;0.97;;;9.40;85.10;;;;;;4873885;29;20550;-74
2022/11/23 09:16:43;;;;;;;1.17;0.47;;;9.40;85.00;;;;;;4864021;29;20475;-72
2022/11/23 09:19:13;;;;;;;0.97;0.57;;;9.40;85.00;;;;;;4871280;29;20451;-74
2022/11/23 09:21:42;;;;;;;1.07;0.67;;;9.50;85.00;;;;;;4878678;29;20563;-74
2022/11/23 09:24:11;;;;;;;1.70;0.97;;;9.50;84.90;;;;;;4866615;29;20487;-73
2022/11/23 09:26:41;;;;;;;2.03;0.50;;;9.50;84.90;;;;;;4868407;29;20479;-72
2022/11/23 09:29:10;;;;;;;0.90;0.70;;;9.50;84.80;;;;;;4874660;29;20835;-71
2022/11/23 09:31:38;;;;;;;1.53;0.90;;;9.50;84.80;;;;;;4877575;29;20472;-74
2022/11/23 09:34:10;;;;;;;0.77;0.77;;;9.50;84.70;;;;;;4868985;29;20456;-73
2022/11/23 09:36:39;;;;;;;2.03;0.70;;;9.50;84.60;;;;;;4865335;29;20579;-74
2022/11/23 09:39:08;;;;;;;3.57;0.77;;;9.50;84.50;;;;;;4860829;29;20203;-74
2022/11/23 09:42:00;;;;;;;0.73;0.60;;;9.50;84.50;;;;;;4874234;29;20737;-72
2022/11/23 09:44:38;;;;;;;1.60;0.97;;;9.50;84.50;;;;;;4871293;29;20574;-68
2022/11/23 09:47:25;;;;;;;4.33;0.83;;;9.50;84.40;;;;;;4867090;29;20872;-68
2022/11/23 09:50:02;;;;;;;3.80;0.80;;;9.50;84.50;;;;;;4875833;29;20515;-68
2022/11/23 09:52:31;;;;;;;3.97;0.63;;;9.50;84.50;;;;;;4860244;29;20539;-67
2022/11/23 09:55:04;;;;;;;1.83;0.70;;;9.50;84.30;;;;;;4879346;29;20483;-68
2022/11/23 09:57:36;;;;;;;1.80;0.67;;;9.50;84.50;;;;;;4871501;29;20832;-68
2022/11/23 10:00:19;;;;;;;1.67;0.73;;;9.50;84.70;;;;;;4870027;29;20562;-68
2022/11/23 10:02:48;;;;;;;1.40;0.60;;;9.50;84.10;;;;;;4863195;29;20438;-73
2022/11/23 10:05:22;;;;;;;4.50;2.30;;;9.50;84.00;;;;;;4883789;29;20872;-74
2022/11/23 10:08:06;;;;;;;2.43;2.23;;;9.50;84.10;;;;;;4870534;29;20998;-74
2022/11/23 10:10:42;;;;;;;0.80;0.60;;;9.50;84.00;;;;;;4873162;29;20438;-75
2022/11/23 10:13:34;;;;;;;0.97;0.67;;;9.50;83.90;;;;;;4877745;29;20533;-74
2022/11/23 10:16:23;;;;;;;1.40;0.70;;;9.50;84.00;;;;;;4866085;29;20507;-73
2022/11/23 10:18:59;;;;;;;3.17;0.87;;;9.50;84.00;;;;;;4863427;29;20444;-73
2022/11/23 10:21:38;;;;;;;3.20;1.10;;;9.50;84.00;;;;;;4869098;29;20475;-74
2022/11/23 10:24:20;;;;;;;2.70;0.80;;;9.50;84.00;;;;;;4885498;29;20468;-73
2022/11/23 10:26:50;;;;;;;2.70;0.97;;;9.50;83.90;;;;;;4871257;29;20882;-73
2022/11/23 10:29:26;;;;;;;1.40;1.10;;;9.50;83.90;;;;;;4871654;29;20467;-73
2022/11/23 10:31:55;;;;;;;1.17;1.00;;;9.50;83.90;;;;;;4867507;29;20531;-74
2022/11/23 10:34:38;;;;;;;5.40;1.53;;;9.60;84.00;;;;;;4886975;29;20803;-73
2022/11/23 10:37:12;;;;;;;3.37;0.70;;;9.50;83.90;;;;;;4871307;29;20514;-73
2022/11/23 10:39:40;;;;;;;3.03;0.73;;;9.50;84.00;;;;;;4868711;29;20562;-73
2022/11/23 10:42:20;;;;;;;1.37;0.87;;;9.50;84.00;;;;;;4869621;29;20483;-74
2022/11/23 10:44:51;;;;;;;1.80;0.80;;;9.50;84.00;;;;;;4870911;29;20491;-73
2022/11/23 10:47:39;;;;;;;2.30;1.13;;;9.50;84.00;;;;;;4873373;29;21189;-69
2022/11/23 10:50:22;;;;;;;1.33;0.60;;;9.50;83.90;;;;;;4870786;29;20467;-68
2022/11/23 10:52:55;;;;;;;2.73;0.90;;;9.50;84.00;;;;;;4869369;29;20789;-67
2022/11/23 10:55:29;;;;;;;2.77;1.00;;;9.50;83.90;;;;;;4864473;29;20475;-69
2022/11/23 10:57:58;;;;;;;2.17;0.93;;;9.50;83.90;;;;;;4868996;29;20439;-67
2022/11/23 11:00:28;;;;;;;1.20;0.80;;;9.50;84.00;;;;;;4884855;29;20478;-68
2022/11/23 11:02:59;;;;;;;3.07;1.17;;;9.50;83.90;;;;;;4860840;29;20451;-68
2022/11/23 11:05:31;;;;;;;1.27;0.80;;;9.50;83.90;;;;;;4867708;29;20485;-68
2022/11/23 11:08:24;;;;;;;1.93;0.83;;;9.50;84.00;;;;;;4867456;29;20833;-69
2022/11/23 11:10:59;;;;;;;3.03;0.77;;;9.50;83.90;;;;;;4876387;29;20495;-73
2022/11/23 11:13:30;;;;;;;1.23;0.83;;;9.50;84.00;;;;;;4875020;29;20450;-72
2022/11/23 11:16:04;;;;;;;4.43;0.90;;;9.50;84.00;;;;;;4866866;29;20926;-72
2022/11/23 11:18:35;;;;;;;3.13;1.07;;;9.50;84.00;;;;;;4877130;29;20810;-72
2022/11/23 11:21:07;;;;;;;1.07;0.70;;;9.50;83.90;;;;;;4874035;29;20548;-73
2022/11/23 11:23:41;;;;;;;1.50;0.60;;;9.50;83.90;;;;;;4874713;29;20451;-72
2022/11/23 11:26:19;;;;;;;3.03;1.07;;;9.50;83.90;;;;;;4871310;29;20471;-66
2022/11/23 11:28:50;;;;;;;2.60;1.10;;;9.50;84.00;;;;;;4866572;29;20470;-69
2022/11/23 11:31:43;;;;;;;2.43;0.90;;;9.50;83.90;;;;;;4873667;29;20470;-68
2022/11/23 11:34:20;;;;;;;4.63;1.10;;;9.50;83.90;;;;;;4885044;29;20551;-67
2022/11/23 11:36:55;;;;;;;0.87;0.73;;;9.50;83.90;;;;;;4870079;29;20486;-67
2022/11/23 11:39:30;;;;;;;2.00;0.90;;;9.50;83.90;;;;;;4869723;29;20466;-68
2022/11/23 11:42:04;;;;;;;1.70;0.63;;;9.50;84.00;;;;;;4872472;29;20486;-67
2022/11/23 11:44:37;;;;;;;1.03;0.60;;;9.60;84.00;;;;;;4871237;29;20455;-68
2022/11/23 11:47:17;;;;;;;2.13;0.65;;;9.60;84.00;;;;;;4876392;29;20566;-68
2022/11/23 11:49:48;;;;;;;1.90;0.83;;;9.50;84.00;;;;;;4873455;29;20357;-67
2022/11/23 11:52:20;;;;;;;3.20;0.80;;;9.50;84.00;;;;;;4873554;29;20467;-68
2022/11/23 11:54:57;;;;;;;2.67;0.90;;;9.50;84.00;;;;;;4874724;29;20454;-69
2022/11/23 11:57:31;;;;;;;0.90;0.60;;;9.50;84.00;;;;;;4871239;29;20257;-67
2022/11/23 12:00:02;;;;;;;4.40;0.67;;;9.50;83.90;;;;;;4864433;29;20861;-68
2022/11/23 12:02:36;;;;;;;2.23;0.70;;;9.60;84.10;;;;;;4870430;29;20483;-67
2022/11/23 12:05:14;;;;;;;1.67;1.00;;;9.50;85.20;;;;;;4860849;29;20440;-67
2022/11/23 12:07:47;;;;;;;1.37;0.70;;;9.60;84.10;;;;;;4870797;29;20455;-67
2022/11/23 12:10:21;;;;;;;1.35;1.15;;;9.60;84.00;;;;;;4871254;29;20455;-68
2022/11/23 12:12:50;;;;;;;1.47;0.63;;;9.60;84.10;;;;;;4873210;29;20203;-67
2022/11/23 12:15:23;;;;;;;1.53;1.00;;;9.60;84.10;;;;;;4870259;29;20972;-68
2022/11/23 12:18:54;;;;;;;1.40;0.80;;;9.60;84.00;;;;;;4868898;29;20862;-68
2022/11/23 12:21:42;;;;;;;1.70;0.93;;;9.60;84.10;;;;;;4861192;29;20487;-67
2022/11/23 12:24:18;;;;;;;2.80;0.80;;;9.50;83.90;;;;;;4883288;29;20903;-68
2022/11/23 12:26:57;;;;;;;2.10;0.70;;;9.60;84.10;;;;;;4873659;29;20492;-69
2022/11/23 12:29:38;;;;;;;4.37;0.93;;;9.60;84.10;;;;;;4865177;29;20475;-72
2022/11/23 12:32:14;;;;;;;0.80;0.80;;;9.60;84.20;;;;;;4865892;29;20558;-68
2022/11/23 12:35:00;;;;;;;2.90;0.90;;;9.60;84.10;;;;;;4865105;29;20810;-68
2022/11/23 12:37:39;;;;;;;2.00;0.80;;;9.70;84.20;;;;;;4864004;29;20488;-69
2022/11/23 12:40:28;;;;;;;2.93;0.70;;;9.60;84.10;;;;;;4859134;29;20455;-73
2022/11/23 12:43:08;;;;;;;3.80;0.90;;;9.70;84.20;;;;;;4886852;29;20542;-73
2022/11/23 12:45:52;;;;;;;3.03;0.97;;;9.60;84.10;;;;;;4868511;29;20474;-68
2022/11/23 12:48:32;;;;;;;0.80;0.63;;;9.60;84.10;;;;;;4870702;29;20443;-66
2022/11/23 12:51:15;;;;;;;1.07;0.70;;;9.60;84.10;;;;;;4864238;29;20466;-67
2022/11/23 12:53:57;;;;;;;2.00;0.67;;;9.60;84.00;;;;;;4866365;29;20454;-67
2022/11/23 12:56:46;;;;;;;4.17;0.90;;;9.60;84.10;;;;;;4877008;29;20547;-68
2022/11/23 12:59:17;;;;;;;1.63;0.60;;;9.60;84.10;;;;;;4863468;29;21021;-66
2022/11/23 13:01:51;;;;;;;0.77;0.63;;;9.60;84.10;;;;;;4870032;29;21365;-67
2022/11/23 13:04:52;;;;;;;1.00;0.90;;;9.60;84.10;;;;;;4869012;29;20443;-68
2022/11/23 13:07:54;;;;;;;1.43;0.57;;;9.60;84.10;;;;;;4869809;29;20482;-68
2022/11/23 13:10:52;;;;;;;1.20;0.60;;;9.60;84.10;;;;;;4861817;29;20466;-69
2022/11/23 13:13:38;;;;;;;2.17;0.70;;;9.60;84.00;;;;;;4870696;29;20475;-68
2022/11/23 13:16:26;;;;;;;2.60;0.77;;;9.60;84.00;;;;;;4868622;29;20542;-70
2022/11/23 13:19:11;;;;;;;4.00;1.03;;;9.60;84.00;;;;;;4860720;29;20844;-73
2022/11/23 13:21:42;;;;;;;1.50;0.57;;;9.60;84.10;;;;;;4872360;29;20490;-73
2022/11/23 13:24:28;;;;;;;2.43;0.77;;;9.60;84.10;;;;;;4877839;29;20447;-74
2022/11/23 13:27:36;;;;;;;5.23;0.80;;;9.70;84.20;;;;;;4865095;29;20486;-74
2022/11/23 13:30:10;;;;;;;4.20;0.90;;;9.70;84.20;;;;;;4850555;29;20479;-73